Aviation Digital Data Service (ADDS)

Output produced by METARs form (2039 UTC 01 October 2022)
found at http://www.aviationweather.gov/metar/data/
 
METAR text: KHSE 011951Z AUTO 23010KT 10SM FEW100 23/18 A2981 RMK AO2 SLP095 T02330183
Conditions at: KHSE (HATTERAS/MITCHEL, NC, US) observed 1951 UTC 01 October 2022
Temperature: 23.3°C (74°F)
Dewpoint: 18.3°C (65°F) [RH = 74%]
Pressure (altimeter): 29.81 inches Hg (1009.6 mb)
[Sea-level pressure: 1009.5 mb]
Winds: from the SW (230 degrees) at 12 MPH (10 knots; 5.1 m/s)
Visibility: 10 or more miles (16+ km)
Ceiling: at least 12,000 feet AGL
Clouds: few clouds at 10000 feet AGL
Weather: automated observation with no human augmentation;
there may or may not be significant weather present at this time

METAR text: KHSE 011851Z AUTO 24010G17KT 8SM CLR 24/19 A2981 RMK AO2 SLP095 T02440194 $
Conditions at: KHSE (HATTERAS/MITCHEL, NC, US) observed 1851 UTC 01 October 2022
Temperature: 24.4°C (76°F)
Dewpoint: 19.4°C (67°F) [RH = 74%]
Pressure (altimeter): 29.81 inches Hg (1009.6 mb)
[Sea-level pressure: 1009.5 mb]
Winds: from the WSW (240 degrees) at 12 MPH (10 knots; 5.1 m/s)
gusting to 20 MPH (17 knots; 8.7 m/s)
Visibility: 8 miles (13 km)
Ceiling: at least 12,000 feet AGL
Clouds: sky clear below 12,000 feet AGL
Weather:
SOME DATA ABOVE MAY BE INACCURATE!!!
"$" is an indication the sensor requires maintenance